sensor_id;sensor_type;location;lat;lon;timestamp;temperature;humidity
48994;DHT22;34804;49.214;12.276;2022-11-04T00:02:03;8.00;93.60
48994;DHT22;34804;49.214;12.276;2022-11-04T00:04:30;8.10;93.40
48994;DHT22;34804;49.214;12.276;2022-11-04T00:06:57;8.10;93.40
48994;DHT22;34804;49.214;12.276;2022-11-04T00:09:28;8.10;93.40
48994;DHT22;34804;49.214;12.276;2022-11-04T00:11:56;8.10;93.50
48994;DHT22;34804;49.214;12.276;2022-11-04T00:14:42;8.10;93.50
48994;DHT22;34804;49.214;12.276;2022-11-04T00:17:10;8.10;93.20
48994;DHT22;34804;49.214;12.276;2022-11-04T00:19:52;8.10;93.20
48994;DHT22;34804;49.214;12.276;2022-11-04T00:22:39;8.00;93.30
48994;DHT22;34804;49.214;12.276;2022-11-04T00:25:25;8.00;93.50
48994;DHT22;34804;49.214;12.276;2022-11-04T00:28:15;8.10;93.50
48994;DHT22;34804;49.214;12.276;2022-11-04T00:31:03;8.10;93.80
48994;DHT22;34804;49.214;12.276;2022-11-04T00:33:50;8.10;93.90
48994;DHT22;34804;49.214;12.276;2022-11-04T00:36:18;8.10;93.90
48994;DHT22;34804;49.214;12.276;2022-11-04T00:38:45;8.10;93.90
48994;DHT22;34804;49.214;12.276;2022-11-04T00:41:12;8.10;93.90
48994;DHT22;34804;49.214;12.276;2022-11-04T00:44:01;8.10;94.00
48994;DHT22;34804;49.214;12.276;2022-11-04T00:46:29;8.10;94.00
48994;DHT22;34804;49.214;12.276;2022-11-04T00:48:57;8.20;94.00
48994;DHT22;34804;49.214;12.276;2022-11-04T00:51:24;8.20;94.00
48994;DHT22;34804;49.214;12.276;2022-11-04T00:53:51;8.20;93.90
48994;DHT22;34804;49.214;12.276;2022-11-04T00:56:18;8.20;93.90
48994;DHT22;34804;49.214;12.276;2022-11-04T00:58:46;8.30;93.90
48994;DHT22;34804;49.214;12.276;2022-11-04T01:01:14;8.30;93.90
48994;DHT22;34804;49.214;12.276;2022-11-04T01:03:46;8.30;93.80
48994;DHT22;34804;49.214;12.276;2022-11-04T01:06:13;8.40;93.50
48994;DHT22;34804;49.214;12.276;2022-11-04T01:08:40;8.40;93.30
48994;DHT22;34804;49.214;12.276;2022-11-04T01:11:08;8.40;93.40
48994;DHT22;34804;49.214;12.276;2022-11-04T01:13:35;8.40;93.40
48994;DHT22;34804;49.214;12.276;2022-11-04T01:16:04;8.40;93.50
48994;DHT22;34804;49.214;12.276;2022-11-04T01:18:31;8.40;93.50
48994;DHT22;34804;49.214;12.276;2022-11-04T01:21:06;8.50;93.70
48994;DHT22;34804;49.214;12.276;2022-11-04T01:23:34;8.40;93.80
48994;DHT22;34804;49.214;12.276;2022-11-04T01:26:04;8.40;93.70
48994;DHT22;34804;49.214;12.276;2022-11-04T01:28:31;8.50;93.80
48994;DHT22;34804;49.214;12.276;2022-11-04T01:30:58;8.60;93.70
48994;DHT22;34804;49.214;12.276;2022-11-04T01:33:24;8.60;93.70
48994;DHT22;34804;49.214;12.276;2022-11-04T01:35:51;8.60;93.70
48994;DHT22;34804;49.214;12.276;2022-11-04T01:38:18;8.60;93.70
48994;DHT22;34804;49.214;12.276;2022-11-04T01:40:45;8.60;93.70
48994;DHT22;34804;49.214;12.276;2022-11-04T01:43:17;8.70;93.60
48994;DHT22;34804;49.214;12.276;2022-11-04T01:45:51;8.70;93.70
48994;DHT22;34804;49.214;12.276;2022-11-04T01:48:27;8.80;93.70
48994;DHT22;34804;49.214;12.276;2022-11-04T01:50:57;8.80;93.60
48994;DHT22;34804;49.214;12.276;2022-11-04T01:53:27;8.80;93.80
48994;DHT22;34804;49.214;12.276;2022-11-04T01:55:59;8.80;93.70
48994;DHT22;34804;49.214;12.276;2022-11-04T01:58:31;8.80;93.80
48994;DHT22;34804;49.214;12.276;2022-11-04T02:01:00;8.80;93.90
48994;DHT22;34804;49.214;12.276;2022-11-04T02:03:31;8.80;93.90
48994;DHT22;34804;49.214;12.276;2022-11-04T02:06:00;8.80;94.00
48994;DHT22;34804;49.214;12.276;2022-11-04T02:08:28;8.80;94.00
48994;DHT22;34804;49.214;12.276;2022-11-04T02:10:58;8.80;94.00
48994;DHT22;34804;49.214;12.276;2022-11-04T02:13:26;8.90;94.00
48994;DHT22;34804;49.214;12.276;2022-11-04T02:16:21;8.80;93.90
48994;DHT22;34804;49.214;12.276;2022-11-04T02:19:18;8.80;94.00
48994;DHT22;34804;49.214;12.276;2022-11-04T02:25:14;8.80;94.20
48994;DHT22;34804;49.214;12.276;2022-11-04T02:30:35;8.90;94.40
48994;DHT22;34804;49.214;12.276;2022-11-04T02:36:21;8.90;94.40
48994;DHT22;34804;49.214;12.276;2022-11-04T02:38:50;8.90;94.50
48994;DHT22;34804;49.214;12.276;2022-11-04T02:44:18;8.80;94.60
48994;DHT22;34804;49.214;12.276;2022-11-04T02:46:52;8.80;94.90
48994;DHT22;34804;49.214;12.276;2022-11-04T02:49:31;8.80;95.00
48994;DHT22;34804;49.214;12.276;2022-11-04T02:52:09;8.80;95.20
48994;DHT22;34804;49.214;12.276;2022-11-04T02:54:51;9.00;95.40
48994;DHT22;34804;49.214;12.276;2022-11-04T02:57:24;9.10;95.50
48994;DHT22;34804;49.214;12.276;2022-11-04T03:00:07;9.30;95.70
48994;DHT22;34804;49.214;12.276;2022-11-04T03:05:12;9.50;95.30
48994;DHT22;34804;49.214;12.276;2022-11-04T03:07:41;9.60;95.20
48994;DHT22;34804;49.214;12.276;2022-11-04T03:10:17;9.60;95.00
48994;DHT22;34804;49.214;12.276;2022-11-04T03:12:51;9.60;95.00
48994;DHT22;34804;49.214;12.276;2022-11-04T03:15:24;9.60;94.90
48994;DHT22;34804;49.214;12.276;2022-11-04T03:18:02;9.60;94.90
48994;DHT22;34804;49.214;12.276;2022-11-04T03:20:36;9.60;94.80
48994;DHT22;34804;49.214;12.276;2022-11-04T03:23:04;9.60;94.90
48994;DHT22;34804;49.214;12.276;2022-11-04T03:25:43;9.60;94.80
48994;DHT22;34804;49.214;12.276;2022-11-04T03:30:54;9.60;94.80
48994;DHT22;34804;49.214;12.276;2022-11-04T03:36:01;9.70;94.30
48994;DHT22;34804;49.214;12.276;2022-11-04T03:38:29;9.60;94.30
48994;DHT22;34804;49.214;12.276;2022-11-04T03:40:58;9.60;94.20
48994;DHT22;34804;49.214;12.276;2022-11-04T03:43:28;9.60;94.10
48994;DHT22;34804;49.214;12.276;2022-11-04T03:45:55;9.50;94.10
48994;DHT22;34804;49.214;12.276;2022-11-04T03:48:22;9.50;94.10
48994;DHT22;34804;49.214;12.276;2022-11-04T03:50:49;9.50;94.10
48994;DHT22;34804;49.214;12.276;2022-11-04T03:53:21;9.50;94.10
48994;DHT22;34804;49.214;12.276;2022-11-04T03:56:13;9.50;94.20
48994;DHT22;34804;49.214;12.276;2022-11-04T04:01:47;9.40;94.20
48994;DHT22;34804;49.214;12.276;2022-11-04T04:04:29;9.50;94.20
48994;DHT22;34804;49.214;12.276;2022-11-04T04:07:04;9.40;94.10
48994;DHT22;34804;49.214;12.276;2022-11-04T04:09:42;9.40;94.10
48994;DHT22;34804;49.214;12.276;2022-11-04T04:12:15;9.40;94.10
48994;DHT22;34804;49.214;12.276;2022-11-04T04:14:50;9.30;94.10
48994;DHT22;34804;49.214;12.276;2022-11-04T04:17:18;9.30;94.20
48994;DHT22;34804;49.214;12.276;2022-11-04T04:19:51;9.30;94.10
48994;DHT22;34804;49.214;12.276;2022-11-04T04:22:26;9.30;94.20
48994;DHT22;34804;49.214;12.276;2022-11-04T04:24:58;9.30;94.10
48994;DHT22;34804;49.214;12.276;2022-11-04T04:27:46;9.30;94.00
48994;DHT22;34804;49.214;12.276;2022-11-04T04:30:15;9.30;94.00
48994;DHT22;34804;49.214;12.276;2022-11-04T04:32:49;9.30;93.80
48994;DHT22;34804;49.214;12.276;2022-11-04T04:35:21;9.30;93.80
48994;DHT22;34804;49.214;12.276;2022-11-04T04:38:26;9.30;93.90
48994;DHT22;34804;49.214;12.276;2022-11-04T04:47:01;9.30;93.90
48994;DHT22;34804;49.214;12.276;2022-11-04T04:49:28;9.30;93.80
48994;DHT22;34804;49.214;12.276;2022-11-04T04:52:02;9.30;93.80
48994;DHT22;34804;49.214;12.276;2022-11-04T04:54:29;9.30;93.90
48994;DHT22;34804;49.214;12.276;2022-11-04T04:56:56;9.20;93.80
48994;DHT22;34804;49.214;12.276;2022-11-04T04:59:23;9.20;93.90
48994;DHT22;34804;49.214;12.276;2022-11-04T05:01:50;9.20;94.10
48994;DHT22;34804;49.214;12.276;2022-11-04T05:04:16;9.20;94.00
48994;DHT22;34804;49.214;12.276;2022-11-04T05:06:43;9.20;94.00
48994;DHT22;34804;49.214;12.276;2022-11-04T05:09:10;9.20;93.70
48994;DHT22;34804;49.214;12.276;2022-11-04T05:11:37;9.20;93.70
48994;DHT22;34804;49.214;12.276;2022-11-04T05:14:04;9.20;93.70
48994;DHT22;34804;49.214;12.276;2022-11-04T05:16:30;9.20;93.70
48994;DHT22;34804;49.214;12.276;2022-11-04T05:19:03;9.20;93.70
48994;DHT22;34804;49.214;12.276;2022-11-04T05:21:30;9.10;93.80
48994;DHT22;34804;49.214;12.276;2022-11-04T05:23:57;9.10;93.90
48994;DHT22;34804;49.214;12.276;2022-11-04T05:26:24;9.10;94.00
48994;DHT22;34804;49.214;12.276;2022-11-04T05:28:51;9.10;93.80
48994;DHT22;34804;49.214;12.276;2022-11-04T05:31:17;9.10;93.80
48994;DHT22;34804;49.214;12.276;2022-11-04T05:33:44;9.10;93.80
48994;DHT22;34804;49.214;12.276;2022-11-04T05:36:13;9.00;93.70
48994;DHT22;34804;49.214;12.276;2022-11-04T05:38:40;9.00;93.60
48994;DHT22;34804;49.214;12.276;2022-11-04T05:41:10;9.00;93.60
48994;DHT22;34804;49.214;12.276;2022-11-04T05:43:37;9.00;93.60
48994;DHT22;34804;49.214;12.276;2022-11-04T05:46:04;8.90;93.70
48994;DHT22;34804;49.214;12.276;2022-11-04T05:48:31;9.00;93.70
48994;DHT22;34804;49.214;12.276;2022-11-04T05:51:05;9.00;94.00
48994;DHT22;34804;49.214;12.276;2022-11-04T05:53:32;9.00;94.20
48994;DHT22;34804;49.214;12.276;2022-11-04T05:55:59;9.00;94.20
48994;DHT22;34804;49.214;12.276;2022-11-04T05:58:26;9.00;94.10
48994;DHT22;34804;49.214;12.276;2022-11-04T06:00:52;9.00;94.30
48994;DHT22;34804;49.214;12.276;2022-11-04T06:03:19;8.90;94.40
48994;DHT22;34804;49.214;12.276;2022-11-04T06:05:46;8.90;94.50
48994;DHT22;34804;49.214;12.276;2022-11-04T06:08:13;8.90;94.60
48994;DHT22;34804;49.214;12.276;2022-11-04T06:10:41;8.90;94.70
48994;DHT22;34804;49.214;12.276;2022-11-04T06:13:08;8.90;94.80
48994;DHT22;34804;49.214;12.276;2022-11-04T06:15:35;9.00;94.80
48994;DHT22;34804;49.214;12.276;2022-11-04T06:18:01;8.90;94.80
48994;DHT22;34804;49.214;12.276;2022-11-04T06:20:28;8.90;94.80
48994;DHT22;34804;49.214;12.276;2022-11-04T06:22:55;8.90;94.90
48994;DHT22;34804;49.214;12.276;2022-11-04T06:25:22;8.90;94.90
48994;DHT22;34804;49.214;12.276;2022-11-04T06:27:48;8.90;94.90
48994;DHT22;34804;49.214;12.276;2022-11-04T06:30:15;8.90;95.00
48994;DHT22;34804;49.214;12.276;2022-11-04T06:32:42;8.90;95.00
48994;DHT22;34804;49.214;12.276;2022-11-04T06:35:09;8.80;95.00
48994;DHT22;34804;49.214;12.276;2022-11-04T06:37:36;8.90;95.00
48994;DHT22;34804;49.214;12.276;2022-11-04T06:40:03;8.80;95.00
48994;DHT22;34804;49.214;12.276;2022-11-04T06:42:30;8.90;95.10
48994;DHT22;34804;49.214;12.276;2022-11-04T06:44:57;8.90;95.20
48994;DHT22;34804;49.214;12.276;2022-11-04T06:47:24;8.90;95.10
48994;DHT22;34804;49.214;12.276;2022-11-04T06:49:51;8.90;95.10
48994;DHT22;34804;49.214;12.276;2022-11-04T06:52:17;8.90;95.10
48994;DHT22;34804;49.214;12.276;2022-11-04T06:54:44;8.90;95.10
48994;DHT22;34804;49.214;12.276;2022-11-04T06:57:13;8.90;95.10
48994;DHT22;34804;49.214;12.276;2022-11-04T06:59:40;8.90;95.10
48994;DHT22;34804;49.214;12.276;2022-11-04T07:02:09;8.90;95.20
48994;DHT22;34804;49.214;12.276;2022-11-04T07:04:36;8.90;95.20
48994;DHT22;34804;49.214;12.276;2022-11-04T07:07:03;9.00;95.30
48994;DHT22;34804;49.214;12.276;2022-11-04T07:09:30;9.00;95.30
48994;DHT22;34804;49.214;12.276;2022-11-04T07:11:57;9.00;95.30
48994;DHT22;34804;49.214;12.276;2022-11-04T07:14:23;9.00;95.00
48994;DHT22;34804;49.214;12.276;2022-11-04T07:16:50;8.90;94.50
48994;DHT22;34804;49.214;12.276;2022-11-04T07:19:17;8.90;94.10
48994;DHT22;34804;49.214;12.276;2022-11-04T07:21:44;9.00;94.00
48994;DHT22;34804;49.214;12.276;2022-11-04T07:24:11;9.00;93.80
48994;DHT22;34804;49.214;12.276;2022-11-04T07:26:38;9.10;93.30
48994;DHT22;34804;49.214;12.276;2022-11-04T07:29:05;9.10;92.20
48994;DHT22;34804;49.214;12.276;2022-11-04T07:31:32;9.10;92.30
48994;DHT22;34804;49.214;12.276;2022-11-04T07:33:59;9.20;91.80
48994;DHT22;34804;49.214;12.276;2022-11-04T07:36:26;9.20;91.70
48994;DHT22;34804;49.214;12.276;2022-11-04T07:38:53;9.20;91.40
48994;DHT22;34804;49.214;12.276;2022-11-04T07:41:20;9.20;91.60
48994;DHT22;34804;49.214;12.276;2022-11-04T07:43:50;9.30;91.80
48994;DHT22;34804;49.214;12.276;2022-11-04T07:46:18;9.30;91.70
48994;DHT22;34804;49.214;12.276;2022-11-04T07:48:45;9.30;92.00
48994;DHT22;34804;49.214;12.276;2022-11-04T07:51:15;9.30;91.70
48994;DHT22;34804;49.214;12.276;2022-11-04T07:53:43;9.30;92.00
48994;DHT22;34804;49.214;12.276;2022-11-04T07:56:11;9.30;92.40
48994;DHT22;34804;49.214;12.276;2022-11-04T07:58:38;9.30;92.20
48994;DHT22;34804;49.214;12.276;2022-11-04T08:01:09;9.30;92.20
48994;DHT22;34804;49.214;12.276;2022-11-04T08:03:36;9.30;91.90
48994;DHT22;34804;49.214;12.276;2022-11-04T08:06:05;9.30;91.70
48994;DHT22;34804;49.214;12.276;2022-11-04T08:08:32;9.30;92.00
48994;DHT22;34804;49.214;12.276;2022-11-04T08:11:02;9.30;92.20
48994;DHT22;34804;49.214;12.276;2022-11-04T08:13:32;9.30;92.10
48994;DHT22;34804;49.214;12.276;2022-11-04T08:16:04;9.20;91.50
48994;DHT22;34804;49.214;12.276;2022-11-04T08:18:32;9.20;91.30
48994;DHT22;34804;49.214;12.276;2022-11-04T08:21:00;9.20;91.60
48994;DHT22;34804;49.214;12.276;2022-11-04T08:23:28;9.20;91.80
48994;DHT22;34804;49.214;12.276;2022-11-04T08:25:55;9.20;91.80
48994;DHT22;34804;49.214;12.276;2022-11-04T08:28:23;9.20;92.00
48994;DHT22;34804;49.214;12.276;2022-11-04T08:30:54;9.20;92.00
48994;DHT22;34804;49.214;12.276;2022-11-04T08:33:22;9.20;91.30
48994;DHT22;34804;49.214;12.276;2022-11-04T08:35:49;9.10;91.40
48994;DHT22;34804;49.214;12.276;2022-11-04T08:38:16;9.20;91.60
48994;DHT22;34804;49.214;12.276;2022-11-04T08:40:43;9.20;91.70
48994;DHT22;34804;49.214;12.276;2022-11-04T08:43:10;9.20;91.90
48994;DHT22;34804;49.214;12.276;2022-11-04T08:45:39;9.20;91.90
48994;DHT22;34804;49.214;12.276;2022-11-04T08:48:07;9.20;91.60
48994;DHT22;34804;49.214;12.276;2022-11-04T08:50:34;9.20;91.70
48994;DHT22;34804;49.214;12.276;2022-11-04T08:53:02;9.20;91.70
48994;DHT22;34804;49.214;12.276;2022-11-04T08:55:30;9.20;91.30
48994;DHT22;34804;49.214;12.276;2022-11-04T08:57:58;9.30;91.30
48994;DHT22;34804;49.214;12.276;2022-11-04T09:00:25;9.20;91.30
48994;DHT22;34804;49.214;12.276;2022-11-04T09:02:52;9.30;90.90
48994;DHT22;34804;49.214;12.276;2022-11-04T09:05:21;9.30;91.00
48994;DHT22;34804;49.214;12.276;2022-11-04T09:07:48;9.30;90.80
48994;DHT22;34804;49.214;12.276;2022-11-04T09:10:15;9.30;90.40
48994;DHT22;34804;49.214;12.276;2022-11-04T09:12:43;9.40;90.70
48994;DHT22;34804;49.214;12.276;2022-11-04T09:15:10;9.40;90.40
48994;DHT22;34804;49.214;12.276;2022-11-04T09:17:38;9.50;90.30
48994;DHT22;34804;49.214;12.276;2022-11-04T09:20:05;9.60;90.40
48994;DHT22;34804;49.214;12.276;2022-11-04T09:22:32;9.70;90.60
48994;DHT22;34804;49.214;12.276;2022-11-04T09:24:59;9.80;90.00
48994;DHT22;34804;49.214;12.276;2022-11-04T09:27:26;9.80;89.70
48994;DHT22;34804;49.214;12.276;2022-11-04T09:29:52;9.90;90.20
48994;DHT22;34804;49.214;12.276;2022-11-04T09:32:19;9.90;89.60
48994;DHT22;34804;49.214;12.276;2022-11-04T09:34:46;9.80;89.10
48994;DHT22;34804;49.214;12.276;2022-11-04T09:37:13;9.90;89.60
48994;DHT22;34804;49.214;12.276;2022-11-04T09:39:42;9.90;89.70
48994;DHT22;34804;49.214;12.276;2022-11-04T09:45:18;10.00;89.10
48994;DHT22;34804;49.214;12.276;2022-11-04T09:47:52;10.10;89.90
48994;DHT22;34804;49.214;12.276;2022-11-04T09:53:17;10.30;88.50
48994;DHT22;34804;49.214;12.276;2022-11-04T09:55:56;10.40;87.80
48994;DHT22;34804;49.214;12.276;2022-11-04T09:58:24;10.40;87.50
48994;DHT22;34804;49.214;12.276;2022-11-04T10:00:58;10.40;87.60
48994;DHT22;34804;49.214;12.276;2022-11-04T10:03:54;10.50;87.20
48994;DHT22;34804;49.214;12.276;2022-11-04T10:26:52;10.70;86.00
48994;DHT22;34804;49.214;12.276;2022-11-04T10:29:35;10.60;86.20
48994;DHT22;34804;49.214;12.276;2022-11-04T10:37:20;10.60;85.80
48994;DHT22;34804;49.214;12.276;2022-11-04T10:39:49;10.50;86.40
48994;DHT22;34804;49.214;12.276;2022-11-04T10:42:19;10.50;85.70
48994;DHT22;34804;49.214;12.276;2022-11-04T10:44:49;10.40;85.20
48994;DHT22;34804;49.214;12.276;2022-11-04T10:50:53;10.50;86.50
48994;DHT22;34804;49.214;12.276;2022-11-04T10:53:26;10.50;86.10
48994;DHT22;34804;49.214;12.276;2022-11-04T10:56:15;10.50;85.00
48994;DHT22;34804;49.214;12.276;2022-11-04T10:58:46;10.40;84.40
48994;DHT22;34804;49.214;12.276;2022-11-04T11:01:33;10.50;85.10
48994;DHT22;34804;49.214;12.276;2022-11-04T11:04:06;10.60;84.20
48994;DHT22;34804;49.214;12.276;2022-11-04T11:06:34;10.70;83.90
48994;DHT22;34804;49.214;12.276;2022-11-04T11:12:17;10.80;84.80
48994;DHT22;34804;49.214;12.276;2022-11-04T11:15:38;10.70;83.20
48994;DHT22;34804;49.214;12.276;2022-11-04T11:18:17;10.70;84.70
48994;DHT22;34804;49.214;12.276;2022-11-04T11:21:09;10.80;83.70
48994;DHT22;34804;49.214;12.276;2022-11-04T11:23:49;10.70;83.70
48994;DHT22;34804;49.214;12.276;2022-11-04T11:26:28;10.50;83.00
48994;DHT22;34804;49.214;12.276;2022-11-04T11:28:57;10.40;84.50
48994;DHT22;34804;49.214;12.276;2022-11-04T11:31:36;10.40;85.60
48994;DHT22;34804;49.214;12.276;2022-11-04T11:34:05;10.20;83.70
48994;DHT22;34804;49.214;12.276;2022-11-04T11:36:40;10.20;85.70
48994;DHT22;34804;49.214;12.276;2022-11-04T11:42:03;10.20;83.80
48994;DHT22;34804;49.214;12.276;2022-11-04T11:44:45;10.20;85.40
48994;DHT22;34804;49.214;12.276;2022-11-04T11:47:20;10.30;86.00
48994;DHT22;34804;49.214;12.276;2022-11-04T11:50:15;10.30;84.80
48994;DHT22;34804;49.214;12.276;2022-11-04T11:52:44;10.20;84.30
48994;DHT22;34804;49.214;12.276;2022-11-04T12:00:34;10.10;85.50
48994;DHT22;34804;49.214;12.276;2022-11-04T12:03:16;10.10;85.60
48994;DHT22;34804;49.214;12.276;2022-11-04T12:08:51;10.20;86.40
48994;DHT22;34804;49.214;12.276;2022-11-04T12:20:23;10.10;86.10
48994;DHT22;34804;49.214;12.276;2022-11-04T12:31:31;10.00;87.00
48994;DHT22;34804;49.214;12.276;2022-11-04T12:37:30;9.90;85.80
48994;DHT22;34804;49.214;12.276;2022-11-04T12:43:06;9.90;86.90
48994;DHT22;34804;49.214;12.276;2022-11-04T12:48:35;9.80;86.40
48994;DHT22;34804;49.214;12.276;2022-11-04T12:51:14;9.80;87.10
48994;DHT22;34804;49.214;12.276;2022-11-04T12:56:40;9.80;87.50
48994;DHT22;34804;49.214;12.276;2022-11-04T13:08:04;9.60;88.30
48994;DHT22;34804;49.214;12.276;2022-11-04T13:13:30;9.50;88.50
48994;DHT22;34804;49.214;12.276;2022-11-04T13:16:00;9.50;89.00
48994;DHT22;34804;49.214;12.276;2022-11-04T13:18:31;9.50;89.00
48994;DHT22;34804;49.214;12.276;2022-11-04T13:21:06;9.40;88.90
48994;DHT22;34804;49.214;12.276;2022-11-04T13:23:50;9.40;88.90
48994;DHT22;34804;49.214;12.276;2022-11-04T13:26:17;9.40;89.40
48994;DHT22;34804;49.214;12.276;2022-11-04T13:28:51;9.40;89.70
48994;DHT22;34804;49.214;12.276;2022-11-04T13:31:57;9.40;89.50
48994;DHT22;34804;49.214;12.276;2022-11-04T13:37:32;9.40;89.30
48994;DHT22;34804;49.214;12.276;2022-11-04T13:40:21;9.30;89.40
48994;DHT22;34804;49.214;12.276;2022-11-04T13:45:48;9.30;89.80
48994;DHT22;34804;49.214;12.276;2022-11-04T13:48:20;9.30;89.80
48994;DHT22;34804;49.214;12.276;2022-11-04T13:51:08;9.30;90.00
48994;DHT22;34804;49.214;12.276;2022-11-04T13:53:48;9.30;90.40
48994;DHT22;34804;49.214;12.276;2022-11-04T14:01:47;9.20;91.30
48994;DHT22;34804;49.214;12.276;2022-11-04T14:04:29;9.20;91.60
48994;DHT22;34804;49.214;12.276;2022-11-04T14:07:01;9.10;91.90
48994;DHT22;34804;49.214;12.276;2022-11-04T14:14:52;9.10;92.40
48994;DHT22;34804;49.214;12.276;2022-11-04T14:25:27;9.00;92.30
48994;DHT22;34804;49.214;12.276;2022-11-04T14:27:59;9.00;92.40
48994;DHT22;34804;49.214;12.276;2022-11-04T14:32:59;9.00;92.40
48994;DHT22;34804;49.214;12.276;2022-11-04T14:35:28;9.00;92.50
48994;DHT22;34804;49.214;12.276;2022-11-04T14:37:56;8.90;92.60
48994;DHT22;34804;49.214;12.276;2022-11-04T14:40:28;8.90;92.70
48994;DHT22;34804;49.214;12.276;2022-11-04T14:43:23;8.90;92.80
48994;DHT22;34804;49.214;12.276;2022-11-04T14:45:55;9.00;92.90
48994;DHT22;34804;49.214;12.276;2022-11-04T14:48:22;9.00;93.10
48994;DHT22;34804;49.214;12.276;2022-11-04T14:50:51;8.90;93.30
48994;DHT22;34804;49.214;12.276;2022-11-04T14:53:35;9.00;93.30
48994;DHT22;34804;49.214;12.276;2022-11-04T14:56:14;9.00;93.50
48994;DHT22;34804;49.214;12.276;2022-11-04T15:01:23;9.00;93.80
48994;DHT22;34804;49.214;12.276;2022-11-04T15:04:12;9.00;93.80
48994;DHT22;34804;49.214;12.276;2022-11-04T15:06:41;8.90;93.80
48994;DHT22;34804;49.214;12.276;2022-11-04T15:09:29;8.90;93.80
48994;DHT22;34804;49.214;12.276;2022-11-04T15:14:50;8.80;93.70
48994;DHT22;34804;49.214;12.276;2022-11-04T15:17:19;8.80;93.70
48994;DHT22;34804;49.214;12.276;2022-11-04T15:19:50;8.80;93.50
48994;DHT22;34804;49.214;12.276;2022-11-04T15:22:18;8.80;93.50
48994;DHT22;34804;49.214;12.276;2022-11-04T15:24:45;8.80;93.40
48994;DHT22;34804;49.214;12.276;2022-11-04T15:27:15;8.70;93.20
48994;DHT22;34804;49.214;12.276;2022-11-04T15:30:00;8.70;93.40
48994;DHT22;34804;49.214;12.276;2022-11-04T15:32:28;8.80;93.40
48994;DHT22;34804;49.214;12.276;2022-11-04T15:34:56;8.70;93.40
48994;DHT22;34804;49.214;12.276;2022-11-04T15:37:24;8.80;93.60
48994;DHT22;34804;49.214;12.276;2022-11-04T15:39:54;8.80;93.60
48994;DHT22;34804;49.214;12.276;2022-11-04T15:42:27;8.80;93.60
48994;DHT22;34804;49.214;12.276;2022-11-04T15:47:55;8.70;93.70
48994;DHT22;34804;49.214;12.276;2022-11-04T15:50:35;8.70;94.10
48994;DHT22;34804;49.214;12.276;2022-11-04T15:53:08;8.80;94.20
48994;DHT22;34804;49.214;12.276;2022-11-04T15:55:36;8.70;94.30
48994;DHT22;34804;49.214;12.276;2022-11-04T15:58:03;8.80;94.30
48994;DHT22;34804;49.214;12.276;2022-11-04T16:00:30;8.80;94.50
48994;DHT22;34804;49.214;12.276;2022-11-04T16:03:00;8.80;94.40
48994;DHT22;34804;49.214;12.276;2022-11-04T16:05:33;8.70;94.30
48994;DHT22;34804;49.214;12.276;2022-11-04T16:08:22;8.70;94.30
48994;DHT22;34804;49.214;12.276;2022-11-04T16:10:50;8.70;94.50
48994;DHT22;34804;49.214;12.276;2022-11-04T16:18:42;8.60;94.50
48994;DHT22;34804;49.214;12.276;2022-11-04T16:21:12;8.60;94.30
48994;DHT22;34804;49.214;12.276;2022-11-04T16:23:46;8.50;94.40
48994;DHT22;34804;49.214;12.276;2022-11-04T16:26:14;8.50;94.50
48994;DHT22;34804;49.214;12.276;2022-11-04T16:28:41;8.40;94.50
48994;DHT22;34804;49.214;12.276;2022-11-04T16:33:48;8.40;94.70
48994;DHT22;34804;49.214;12.276;2022-11-04T16:36:16;8.40;94.60
48994;DHT22;34804;49.214;12.276;2022-11-04T16:38:59;8.40;94.70
48994;DHT22;34804;49.214;12.276;2022-11-04T16:41:34;8.30;94.60
48994;DHT22;34804;49.214;12.276;2022-11-04T16:44:02;8.30;94.60
48994;DHT22;34804;49.214;12.276;2022-11-04T16:46:31;8.30;94.60
48994;DHT22;34804;49.214;12.276;2022-11-04T16:48:59;8.30;94.70
48994;DHT22;34804;49.214;12.276;2022-11-04T16:51:26;8.30;94.90
48994;DHT22;34804;49.214;12.276;2022-11-04T16:53:53;8.30;95.10
48994;DHT22;34804;49.214;12.276;2022-11-04T16:56:22;8.30;95.10
48994;DHT22;34804;49.214;12.276;2022-11-04T16:58:51;8.30;95.20
48994;DHT22;34804;49.214;12.276;2022-11-04T17:01:18;8.30;95.10
48994;DHT22;34804;49.214;12.276;2022-11-04T17:03:46;8.30;95.20
48994;DHT22;34804;49.214;12.276;2022-11-04T17:06:14;8.30;95.30
48994;DHT22;34804;49.214;12.276;2022-11-04T17:08:41;8.30;95.10
48994;DHT22;34804;49.214;12.276;2022-11-04T17:11:11;8.20;94.80
48994;DHT22;34804;49.214;12.276;2022-11-04T17:13:38;8.20;94.90
48994;DHT22;34804;49.214;12.276;2022-11-04T17:16:06;8.20;94.90
48994;DHT22;34804;49.214;12.276;2022-11-04T17:18:33;8.20;95.10
48994;DHT22;34804;49.214;12.276;2022-11-04T17:21:05;8.10;95.10
48994;DHT22;34804;49.214;12.276;2022-11-04T17:23:32;8.10;95.00
48994;DHT22;34804;49.214;12.276;2022-11-04T17:25:59;8.10;95.10
48994;DHT22;34804;49.214;12.276;2022-11-04T17:28:26;8.10;95.20
48994;DHT22;34804;49.214;12.276;2022-11-04T17:30:53;8.20;95.30
48994;DHT22;34804;49.214;12.276;2022-11-04T17:33:20;8.10;95.10
48994;DHT22;34804;49.214;12.276;2022-11-04T17:35:48;8.10;95.10
48994;DHT22;34804;49.214;12.276;2022-11-04T17:38:16;8.00;95.10
48994;DHT22;34804;49.214;12.276;2022-11-04T17:40:44;8.00;95.10
48994;DHT22;34804;49.214;12.276;2022-11-04T17:43:29;8.00;95.20
48994;DHT22;34804;49.214;12.276;2022-11-04T17:46:16;8.00;95.20
48994;DHT22;34804;49.214;12.276;2022-11-04T17:51:31;7.90;95.20
48994;DHT22;34804;49.214;12.276;2022-11-04T17:53:58;7.90;95.20
48994;DHT22;34804;49.214;12.276;2022-11-04T17:56:25;7.80;95.20
48994;DHT22;34804;49.214;12.276;2022-11-04T17:58:52;7.80;95.30
48994;DHT22;34804;49.214;12.276;2022-11-04T18:01:21;7.80;95.40
48994;DHT22;34804;49.214;12.276;2022-11-04T18:03:50;7.80;95.40
48994;DHT22;34804;49.214;12.276;2022-11-04T18:06:19;7.80;95.40
48994;DHT22;34804;49.214;12.276;2022-11-04T18:08:46;7.80;95.50
48994;DHT22;34804;49.214;12.276;2022-11-04T18:11:13;7.80;95.40
48994;DHT22;34804;49.214;12.276;2022-11-04T18:14:01;7.70;95.40
48994;DHT22;34804;49.214;12.276;2022-11-04T18:16:28;7.70;95.30
48994;DHT22;34804;49.214;12.276;2022-11-04T18:18:58;7.60;95.30
48994;DHT22;34804;49.214;12.276;2022-11-04T18:21:27;7.60;95.30
48994;DHT22;34804;49.214;12.276;2022-11-04T18:23:54;7.50;95.30
48994;DHT22;34804;49.214;12.276;2022-11-04T18:26:21;7.50;95.50
48994;DHT22;34804;49.214;12.276;2022-11-04T18:28:48;7.50;95.50
48994;DHT22;34804;49.214;12.276;2022-11-04T18:31:30;7.50;95.50
48994;DHT22;34804;49.214;12.276;2022-11-04T18:33:58;7.50;95.50
48994;DHT22;34804;49.214;12.276;2022-11-04T18:36:26;7.50;95.50
48994;DHT22;34804;49.214;12.276;2022-11-04T18:38:53;7.50;95.70
48994;DHT22;34804;49.214;12.276;2022-11-04T18:41:21;7.50;95.70
48994;DHT22;34804;49.214;12.276;2022-11-04T18:43:48;7.50;95.60